Time;durP1;ratioP1;P1;durP2;ratioP2;P2;SDS_P1;SDS_P2;PMS_P1;PMS_P2;Temp;Humidity;BMP_temperature;BMP_pressure;BME280_temperature;BME280_humidity;BME280_pressure;Samples;Min_cycle;Max_cycle;Signal;HPM_P1;HPM_P2
2022/12/13 00:02:09;;;;;;;10.25;7.22;;;;;;;0.49;61.38;93260.97;4995531;28;20022;-77
2022/12/13 00:04:35;;;;;;;9.35;6.55;;;;;;;0.40;62.17;93253.91;4995531;28;20041;-76
2022/12/13 00:07:00;;;;;;;7.93;6.53;;;;;;;0.63;61.55;93266.44;4993718;28;20052;-75
2022/12/13 00:09:26;;;;;;;10.65;5.47;;;;;;;0.47;61.46;93249.97;4988182;28;20049;-76
2022/12/13 00:11:52;;;;;;;6.78;5.25;;;;;;;0.45;61.73;93264.38;4990111;28;20084;-76
2022/12/13 00:14:17;;;;;;;6.30;4.65;;;;;;;0.60;60.02;93277.41;4991693;28;20436;-76
2022/12/13 00:16:47;;;;;;;6.38;5.03;;;;;;;0.25;59.84;93259.94;4989177;28;20040;-76
2022/12/13 00:19:13;;;;;;;5.32;4.82;;;;;;;0.27;59.30;93260.44;4992120;28;21452;-76
2022/12/13 00:21:39;;;;;;;5.43;4.25;;;;;;;0.12;60.61;93276.13;4991209;28;20113;-76
2022/12/13 00:24:05;;;;;;;5.15;4.40;;;;;;;0.20;60.87;93281.63;5004354;28;20031;-75
2022/12/13 00:26:31;;;;;;;5.25;4.53;;;;;;;0.29;60.89;93280.06;4994389;28;20029;-76
2022/12/13 00:29:06;;;;;;;6.03;5.18;;;;;;;0.16;61.76;93277.97;4991898;28;20223;-77
2022/12/13 00:31:32;;;;;;;4.97;4.47;;;;;;;0.21;61.50;93282.41;4992778;28;20204;-76
2022/12/13 00:33:58;;;;;;;6.68;5.35;;;;;;;0.09;61.65;93266.97;4991016;28;20034;-77
2022/12/13 00:36:24;;;;;;;7.68;4.97;;;;;;;0.11;62.24;93269.31;4992039;28;20041;-75
2022/12/13 00:39:01;;;;;;;5.20;3.90;;;;;;;0.04;60.24;93280.06;4989011;28;20401;-76
2022/12/13 00:41:30;;;;;;;4.60;4.10;;;;;;;0.07;60.37;93276.13;4995108;28;20665;-76
2022/12/13 00:43:56;;;;;;;6.78;4.82;;;;;;;-0.07;61.09;93281.88;4971321;28;20313;-75
2022/12/13 00:46:21;;;;;;;6.45;4.20;;;;;;;-0.22;60.30;93266.16;4990203;28;20508;-76
2022/12/13 00:48:49;;;;;;;5.40;4.03;;;;;;;-0.18;61.24;93285.50;4992917;28;20442;-76
2022/12/13 00:51:15;;;;;;;5.90;5.03;;;;;;;-0.26;62.13;93274.78;4995903;28;20400;-76
2022/12/13 00:53:40;;;;;;;7.20;4.32;;;;;;;-0.17;60.52;93270.59;4993891;28;20363;-75
2022/12/13 00:56:11;;;;;;;5.63;4.03;;;;;;;-0.32;60.62;93258.31;4996649;28;20480;-76
2022/12/13 00:58:36;;;;;;;6.10;4.22;;;;;;;-0.37;60.50;93273.97;4994871;28;20056;-77
2022/12/13 01:01:08;;;;;;;5.97;4.70;;;;;;;-0.15;59.77;93287.63;4995352;28;20501;-75
2022/12/13 01:03:33;;;;;;;5.28;4.15;;;;;;;-0.03;59.57;93291.78;4991075;28;20053;-76
2022/12/13 01:05:59;;;;;;;7.13;3.90;;;;;;;-0.02;57.88;93275.06;4994879;28;20033;-77
2022/12/13 01:08:26;;;;;;;6.18;4.00;;;;;;;-0.03;57.53;93283.94;4992290;28;20034;-76
2022/12/13 01:10:52;;;;;;;4.60;3.70;;;;;;;-0.24;59.23;93281.31;4994018;28;20128;-76
2022/12/13 01:13:18;;;;;;;5.05;3.60;;;;;;;-0.23;58.38;93290.72;5008665;28;20037;-76
2022/12/13 01:15:45;;;;;;;7.05;4.90;;;;;;;-0.42;60.28;93287.03;4989889;28;20636;-76
2022/12/13 01:18:12;;;;;;;6.85;4.22;;;;;;;-0.32;59.94;93287.03;4991222;28;20088;-75
2022/12/13 01:20:38;;;;;;;5.25;4.18;;;;;;;-0.43;60.02;93285.44;4993016;28;20125;-76
2022/12/13 01:23:05;;;;;;;8.20;5.07;;;;;;;-0.34;60.38;93290.97;4995650;28;20573;-75
2022/12/13 01:25:32;;;;;;;6.18;4.07;;;;;;;-0.27;59.97;93278.44;4991210;28;20400;-76
2022/12/13 01:27:58;;;;;;;6.43;5.28;;;;;;;-0.18;60.24;93282.09;4992293;28;20414;-76
2022/12/13 01:30:24;;;;;;;7.65;4.80;;;;;;;-0.13;60.09;93280.28;4993451;28;20044;-75
2022/12/13 01:32:50;;;;;;;5.82;4.05;;;;;;;-0.26;60.86;93275.56;4991340;28;20125;-75
2022/12/13 01:35:15;;;;;;;7.13;5.53;;;;;;;-0.32;60.28;93255.69;4994859;28;20030;-76
2022/12/13 01:37:41;;;;;;;5.50;4.03;;;;;;;-0.09;58.88;93277.94;4985392;28;20038;-76
2022/12/13 01:40:08;;;;;;;4.65;4.20;;;;;;;-0.13;58.54;93269.84;4993136;28;20673;-75
2022/12/13 01:42:36;;;;;;;6.30;4.70;;;;;;;0.04;58.89;93287.09;4990926;28;20050;-75
2022/12/13 01:45:20;;;;;;;6.50;4.70;;;;;;;0.11;58.89;93279.78;4994336;28;20153;-75
2022/12/13 01:47:50;;;;;;;7.22;4.70;;;;;;;-0.02;59.41;93281.09;4993705;28;20512;-75
2022/12/13 01:50:21;;;;;;;9.07;5.45;;;;;;;-0.01;59.53;93268.81;4993255;28;20053;-76
2022/12/13 01:52:48;;;;;;;8.50;6.43;;;;;;;-0.11;60.40;93290.50;4993651;28;20487;-75
2022/12/13 01:55:17;;;;;;;8.68;6.00;;;;;;;-0.22;61.30;93283.66;4992667;28;20073;-76
2022/12/13 01:57:45;;;;;;;9.93;6.78;;;;;;;-0.10;61.43;93277.16;4993097;28;20053;-76
2022/12/13 02:00:11;;;;;;;10.45;7.13;;;;;;;-0.09;61.14;93285.78;4991924;28;20026;-75
2022/12/13 02:02:38;;;;;;;11.98;8.65;;;;;;;-0.27;62.01;93289.66;4993360;28;20170;-76
2022/12/13 02:05:10;;;;;;;13.25;7.65;;;;;;;-0.12;61.80;93289.69;4992848;28;20033;-76
2022/12/13 02:07:38;;;;;;;11.15;7.88;;;;;;;-0.19;61.77;93281.31;4994039;28;20135;-77
2022/12/13 02:10:05;;;;;;;11.32;7.88;;;;;;;-0.03;61.29;93284.75;4991716;28;20234;-76
2022/12/13 02:12:33;;;;;;;10.18;7.43;;;;;;;-0.03;61.11;93283.94;4993085;28;20036;-76
2022/12/13 02:15:01;;;;;;;12.57;8.48;;;;;;;0.04;60.98;93281.88;4992760;28;20582;-76
2022/12/13 02:17:45;;;;;;;13.48;8.10;;;;;;;-0.14;60.99;93278.72;4991782;28;20025;-75
2022/12/13 02:20:36;;;;;;;13.07;8.05;;;;;;;-0.08;60.89;93269.84;4991948;28;21127;-76
2022/12/13 02:23:39;;;;;;;10.00;7.30;;;;;;;0.05;60.11;93265.16;4993171;28;20348;-76
2022/12/13 02:26:13;;;;;;;13.35;8.10;;;;;;;0.01;60.12;93274.56;5008835;28;20045;-76
2022/12/13 02:29:07;;;;;;;11.15;7.55;;;;;;;0.21;58.98;93277.16;4991238;28;20499;-76
2022/12/13 02:31:41;;;;;;;10.32;6.55;;;;;;;0.15;58.87;93286.09;4994837;28;20099;-76
2022/12/13 02:34:19;;;;;;;11.10;7.07;;;;;;;0.10;59.12;93283.47;4991982;28;20061;-75
2022/12/13 02:37:06;;;;;;;11.32;6.68;;;;;;;0.03;58.79;93282.91;4993043;28;20049;-75
2022/12/13 02:39:36;;;;;;;10.45;7.10;;;;;;;-0.06;58.60;93293.13;5000008;28;20321;-76
2022/12/13 02:42:13;;;;;;;11.52;6.15;;;;;;;-0.15;58.49;93298.06;4991495;28;20339;-75
2022/12/13 02:45:05;;;;;;;9.18;6.70;;;;;;;-0.11;58.75;93290.50;4989949;28;20934;-76
2022/12/13 02:47:32;;;;;;;8.65;6.03;;;;;;;-0.53;59.25;93280.19;4981543;28;20137;-76
2022/12/13 02:50:03;;;;;;;9.38;6.88;;;;;;;-0.47;58.67;93260.09;4991788;28;20029;-76
2022/12/13 02:52:31;;;;;;;9.95;6.43;;;;;;;-0.35;58.53;93287.56;4994594;28;20061;-76
2022/12/13 02:54:57;;;;;;;9.75;6.72;;;;;;;-0.57;58.03;93258.25;4992241;28;20057;-76
2022/12/13 02:57:37;;;;;;;7.90;5.97;;;;;;;-0.29;58.33;93291.78;4989606;28;20472;-76
2022/12/13 03:00:07;;;;;;;9.15;5.97;;;;;;;-0.30;57.97;93305.09;4996958;28;20036;-76
2022/12/13 03:02:44;;;;;;;11.57;7.05;;;;;;;-0.18;57.22;93298.56;4997871;28;20026;-76
2022/12/13 03:08:27;;;;;;;10.77;6.57;;;;;;;-0.36;57.44;93311.34;4995433;28;20044;-75
2022/12/13 03:11:08;;;;;;;8.05;5.65;;;;;;;-0.41;57.97;93304.28;4997368;28;20038;-75
2022/12/13 03:13:40;;;;;;;9.55;6.93;;;;;;;-0.43;58.20;93311.56;4993476;28;20045;-76
2022/12/13 03:16:14;;;;;;;9.48;6.30;;;;;;;-0.42;58.07;93307.91;4996826;28;20077;-76
2022/12/13 03:18:40;;;;;;;12.05;7.07;;;;;;;-0.45;57.55;93292.78;4997090;28;20249;-76
2022/12/13 03:21:08;;;;;;;7.65;6.07;;;;;;;-0.47;57.75;93294.84;4995855;28;20124;-76
2022/12/13 03:23:34;;;;;;;11.73;7.35;;;;;;;-0.57;58.03;93274.69;4996870;28;20815;-75
2022/12/13 03:26:11;;;;;;;10.25;7.25;;;;;;;-0.27;57.54;93310.56;4995441;28;20022;-76
2022/12/13 03:28:38;;;;;;;9.85;6.95;;;;;;;-0.33;57.75;93301.16;4996081;28;20049;-76
2022/12/13 03:31:04;;;;;;;10.20;7.25;;;;;;;-0.15;57.00;93315.59;4994077;28;20072;-77
2022/12/13 03:33:29;;;;;;;9.98;6.97;;;;;;;-0.18;56.82;93301.19;4997763;28;20042;-76
2022/12/13 03:35:55;;;;;;;11.80;7.60;;;;;;;-0.18;57.13;93295.97;4994386;28;20104;-76
2022/12/13 03:38:21;;;;;;;11.77;6.57;;;;;;;-0.11;56.83;93314.00;5010255;28;20029;-76
2022/12/13 03:40:47;;;;;;;11.40;7.63;;;;;;;-0.11;56.40;93299.13;5007822;28;20487;-76
2022/12/13 03:43:12;;;;;;;15.20;8.38;;;;;;;0.01;55.82;93308.56;4996248;28;20034;-75
2022/12/13 03:45:38;;;;;;;15.88;8.80;;;;;;;0.02;56.09;93295.22;4992056;28;20041;-76
2022/12/13 03:48:03;;;;;;;12.30;7.25;;;;;;;-0.11;55.96;93299.13;4994402;28;20385;-76
2022/12/13 03:50:29;;;;;;;10.15;7.38;;;;;;;-0.12;55.62;93301.97;4996219;28;20635;-76
2022/12/13 03:53:02;;;;;;;11.88;8.43;;;;;;;-0.31;56.09;93314.75;4988649;28;20025;-76
2022/12/13 03:55:28;;;;;;;10.38;6.63;;;;;;;-0.26;55.38;93314.78;4994501;28;20455;-76
2022/12/13 03:57:54;;;;;;;11.15;7.10;;;;;;;-0.27;55.27;93304.56;4993919;28;20030;-76
2022/12/13 04:00:19;;;;;;;12.20;6.93;;;;;;;-0.37;55.54;93317.59;4993612;28;20463;-76
2022/12/13 04:02:44;;;;;;;11.85;6.60;;;;;;;-0.34;54.40;93324.94;4993475;28;20038;-75
2022/12/13 04:05:10;;;;;;;10.30;5.82;;;;;;;-0.58;54.91;93329.84;4995558;28;20481;-76
2022/12/13 04:07:35;;;;;;;8.15;5.15;;;;;;;-0.63;55.70;93330.56;4993978;28;20058;-75
2022/12/13 04:10:02;;;;;;;7.90;5.10;;;;;;;-0.60;55.06;93337.13;4993593;28;20313;-76
2022/12/13 04:15:11;;;;;;;9.70;5.25;;;;;;;-0.67;54.27;93336.56;4996323;28;20687;-75
2022/12/13 04:17:36;;;;;;;6.40;4.72;;;;;;;-0.83;54.75;93333.13;4994483;28;20038;-76
2022/12/13 04:20:02;;;;;;;6.00;4.53;;;;;;;-0.92;54.95;93328.63;5011406;28;20064;-76
2022/12/13 04:22:27;;;;;;;6.38;4.20;;;;;;;-0.84;52.88;93354.25;4993253;28;20135;-76
2022/12/13 04:24:53;;;;;;;7.78;4.32;;;;;;;-0.87;53.65;93341.72;5009341;28;20033;-76
2022/12/13 04:27:18;;;;;;;7.15;5.07;;;;;;;-0.93;54.65;93347.94;5007029;28;20449;-76
2022/12/13 04:29:43;;;;;;;8.63;5.47;;;;;;;-0.77;54.05;93357.41;4995837;28;20053;-77
2022/12/13 04:32:09;;;;;;;9.27;4.90;;;;;;;-0.78;53.15;93364.47;5009878;28;20021;-76
2022/12/13 04:34:34;;;;;;;11.07;5.43;;;;;;;-0.91;54.30;93359.69;4993675;28;20034;-76
2022/12/13 04:36:59;;;;;;;10.65;5.70;;;;;;;-0.90;53.85;93368.31;4995411;28;20045;-76
2022/12/13 04:39:25;;;;;;;6.07;4.57;;;;;;;-0.86;53.77;93369.38;4993121;28;20045;-76
2022/12/13 04:41:53;;;;;;;7.43;4.72;;;;;;;-0.82;52.08;93381.66;4996789;28;20555;-77
2022/12/13 04:44:19;;;;;;;8.25;4.55;;;;;;;-0.99;52.99;93368.78;4986633;28;20091;-76
2022/12/13 04:46:44;;;;;;;6.82;4.93;;;;;;;-1.04;54.49;93379.19;4993511;28;20088;-75
2022/12/13 04:49:10;;;;;;;6.07;4.15;;;;;;;-1.20;54.33;93377.50;4996004;28;20033;-75
2022/12/13 04:51:35;;;;;;;4.32;3.65;;;;;;;-1.09;53.84;93376.56;4994409;28;20045;-75
2022/12/13 04:54:00;;;;;;;4.68;3.75;;;;;;;-1.10;54.45;93372.38;4994684;28;20029;-76
2022/12/13 04:56:26;;;;;;;6.65;3.88;;;;;;;-1.19;55.07;93388.75;4995451;28;20025;-76
2022/12/13 04:58:51;;;;;;;7.68;5.72;;;;;;;-1.16;56.51;93396.84;4996717;28;20034;-75
2022/12/13 05:01:17;;;;;;;12.65;7.97;;;;;;;-1.26;57.47;93396.78;4994670;28;20473;-76
2022/12/13 05:03:42;;;;;;;12.15;8.45;;;;;;;-1.29;57.89;93401.72;4996421;28;20034;-76
2022/12/13 05:06:12;;;;;;;15.20;9.40;;;;;;;-1.55;58.62;93390.28;4993667;28;20218;-76
2022/12/13 05:08:38;;;;;;;13.32;9.50;;;;;;;-1.58;58.80;93398.59;4995104;28;20072;-76
2022/12/13 05:11:04;;;;;;;12.40;8.98;;;;;;;-1.46;58.97;93396.63;4994311;28;20025;-76
2022/12/13 05:13:29;;;;;;;15.07;9.43;;;;;;;-1.38;58.89;93399.56;4994183;28;20049;-75
2022/12/13 05:15:56;;;;;;;11.80;8.15;;;;;;;-1.33;58.33;93406.66;4995576;28;20046;-75
2022/12/13 05:18:22;;;;;;;12.45;8.63;;;;;;;-1.33;57.49;93392.81;5005532;28;20061;-76
2022/12/13 05:20:49;;;;;;;12.63;8.32;;;;;;;-1.40;57.95;93413.88;4991875;28;20113;-76
2022/12/13 05:23:16;;;;;;;14.57;9.52;;;;;;;-1.70;57.93;93393.53;4996177;28;20476;-75
2022/12/13 05:25:41;;;;;;;22.20;10.32;;;;;;;-1.67;58.66;93415.75;4993675;28;20033;-76
2022/12/13 05:28:06;;;;;;;13.75;9.25;;;;;;;-1.64;58.67;93417.84;4993697;28;20030;-75
2022/12/13 05:30:32;;;;;;;16.08;9.88;;;;;;;-1.55;58.74;93416.34;4993333;28;20583;-75
2022/12/13 05:32:58;;;;;;;13.10;10.07;;;;;;;-1.61;58.34;93404.31;4994273;28;20580;-75
2022/12/13 05:35:23;;;;;;;14.55;10.10;;;;;;;-1.70;57.84;93401.34;4993061;28;20030;-76
2022/12/13 05:37:51;;;;;;;14.32;9.93;;;;;;;-1.63;58.50;93416.81;4992604;28;20065;-75
2022/12/13 05:40:17;;;;;;;14.45;9.48;;;;;;;-1.86;58.23;93387.41;4994202;28;20050;-75
2022/12/13 05:42:42;;;;;;;16.55;11.27;;;;;;;-1.66;58.37;93435.56;4995147;28;20034;-76
2022/12/13 05:45:08;;;;;;;16.25;10.90;;;;;;;-1.67;58.57;93434.00;4991670;28;20041;-76
2022/12/13 05:47:34;;;;;;;19.02;11.45;;;;;;;-1.68;57.94;93421.97;4987042;28;20201;-76
2022/12/13 05:49:59;;;;;;;18.77;10.15;;;;;;;-1.84;58.92;93437.47;4992467;28;20448;-76
2022/12/13 05:52:24;;;;;;;14.32;9.20;;;;;;;-1.95;59.31;93443.59;4994787;28;20034;-75
2022/12/13 05:54:55;;;;;;;15.35;10.35;;;;;;;-1.92;59.41;93439.72;4994699;28;20034;-75
2022/12/13 05:57:21;;;;;;;16.02;10.15;;;;;;;-1.89;59.79;93437.41;4992450;28;20228;-76
2022/12/13 05:59:46;;;;;;;16.42;10.77;;;;;;;-1.80;59.44;93452.63;4994002;28;20044;-75
2022/12/13 06:02:11;;;;;;;15.65;10.52;;;;;;;-1.88;58.90;93439.00;4994718;28;20583;-76
2022/12/13 06:04:37;;;;;;;16.92;10.27;;;;;;;-1.63;58.22;93450.72;4993381;28;20120;-76
2022/12/13 06:07:02;;;;;;;19.85;11.95;;;;;;;-1.74;58.67;93436.00;4992915;28;20398;-76
2022/12/13 06:09:27;;;;;;;17.55;11.60;;;;;;;-1.55;58.86;93447.66;4993821;28;20069;-75
2022/12/13 06:11:53;;;;;;;18.30;11.25;;;;;;;-1.76;59.35;93438.06;4993279;28;20800;-75
2022/12/13 06:14:18;;;;;;;17.58;11.23;;;;;;;-1.72;59.32;93446.97;4993520;28;20133;-75
2022/12/13 06:16:44;;;;;;;14.40;9.88;;;;;;;-1.68;58.76;93450.66;4996160;28;20042;-75
2022/12/13 06:19:09;;;;;;;16.70;10.90;;;;;;;-1.57;58.58;93452.34;4992745;28;20044;-76
2022/12/13 06:21:34;;;;;;;18.13;11.73;;;;;;;-1.56;58.83;93439.06;4989657;28;20042;-75
2022/12/13 06:24:00;;;;;;;15.75;10.20;;;;;;;-1.57;57.99;93452.34;4993597;28;20148;-75
2022/12/13 06:26:25;;;;;;;18.08;10.25;;;;;;;-1.50;58.04;93447.69;4993847;28;20456;-76
2022/12/13 06:28:51;;;;;;;20.50;12.93;;;;;;;-1.66;58.45;93443.38;4994444;28;20124;-76
2022/12/13 06:31:16;;;;;;;30.23;14.63;;;;;;;-1.34;58.09;93449.41;4994205;28;20041;-76
2022/12/13 06:33:42;;;;;;;30.95;15.32;;;;;;;-1.32;57.77;93460.41;4999604;28;20064;-76
2022/12/13 06:36:08;;;;;;;26.50;14.65;;;;;;;-1.39;58.24;93457.19;4995169;28;20044;-76
2022/12/13 06:38:33;;;;;;;18.35;12.15;;;;;;;-1.32;57.87;93462.22;5012416;28;20080;-75
2022/12/13 06:41:25;;;;;;;19.52;12.27;;;;;;;-1.25;57.91;93470.63;4994496;28;20153;-76
2022/12/13 06:43:50;;;;;;;20.30;12.15;;;;;;;-1.40;57.59;93458.22;4993218;28;20053;-76
2022/12/13 06:46:16;;;;;;;21.77;13.00;;;;;;;-1.40;57.71;93468.66;4995298;28;20168;-75
2022/12/13 06:48:41;;;;;;;31.15;16.33;;;;;;;-1.46;57.86;93454.78;4998114;28;20072;-75
2022/12/13 06:51:08;;;;;;;33.17;17.65;;;;;;;-1.31;57.53;93469.03;4995860;28;20034;-75
2022/12/13 06:53:38;;;;;;;30.75;16.98;;;;;;;-1.46;58.04;93461.84;4998066;28;20072;-75
2022/12/13 06:56:05;;;;;;;25.60;16.20;;;;;;;-1.48;57.96;93451.66;4996053;28;20060;-76
2022/12/13 06:58:32;;;;;;;30.80;17.73;;;;;;;-1.22;57.22;93470.94;4995007;28;20053;-76
2022/12/13 07:01:06;;;;;;;29.05;16.45;;;;;;;-1.21;57.30;93466.47;4995004;28;20359;-76
2022/12/13 07:03:32;;;;;;;28.45;16.10;;;;;;;-1.28;57.99;93465.91;4993160;28;20074;-76
2022/12/13 07:05:59;;;;;;;21.83;13.35;;;;;;;-1.37;57.05;93470.78;4989090;28;20038;-76
2022/12/13 07:08:25;;;;;;;23.10;13.52;;;;;;;-1.35;57.69;93476.53;4993909;28;20041;-76
2022/12/13 07:10:52;;;;;;;20.67;13.30;;;;;;;-1.42;57.05;93475.97;4997406;28;20038;-75
2022/12/13 07:13:19;;;;;;;18.33;13.23;;;;;;;-1.45;56.81;93461.56;5010682;28;20049;-77
2022/12/13 07:15:45;;;;;;;18.42;13.43;;;;;;;-1.38;56.44;93477.03;4996566;28;20100;-76
2022/12/13 07:18:11;;;;;;;19.85;13.40;;;;;;;-1.14;56.13;93487.94;4994645;28;20611;-75
2022/12/13 07:20:41;;;;;;;21.42;13.80;;;;;;;-1.29;56.75;93459.91;4996873;28;20466;-76
2022/12/13 07:23:07;;;;;;;21.42;14.50;;;;;;;-1.47;57.71;93478.53;4995073;28;20120;-76
2022/12/13 07:25:32;;;;;;;23.25;15.38;;;;;;;-1.47;57.68;93468.09;4996988;28;20678;-76
2022/12/13 07:28:00;;;;;;;21.88;14.88;;;;;;;-1.19;57.61;93485.28;4996165;28;20282;-76
2022/12/13 07:30:26;;;;;;;20.60;13.32;;;;;;;-1.13;56.39;93490.31;4986973;28;20042;-75
2022/12/13 07:32:51;;;;;;;22.08;15.10;;;;;;;-1.20;57.23;93494.16;4995491;28;20530;-76
2022/12/13 07:35:16;;;;;;;20.08;13.70;;;;;;;-1.20;56.07;93494.16;4995825;28;20720;-75
2022/12/13 07:37:42;;;;;;;21.98;14.30;;;;;;;-1.54;57.39;93494.34;4991832;28;20030;-75
2022/12/13 07:40:09;;;;;;;23.52;15.95;;;;;;;-1.24;56.92;93478.22;4989840;28;20048;-75
2022/12/13 07:42:34;;;;;;;23.10;16.40;;;;;;;-1.45;57.07;93492.88;4989380;28;20093;-76
2022/12/13 07:45:00;;;;;;;30.55;17.65;;;;;;;-1.73;57.82;93492.31;4989503;28;20496;-76
2022/12/13 07:47:29;;;;;;;27.05;17.45;;;;;;;-1.76;58.69;93496.22;4989976;28;20038;-75
2022/12/13 07:49:55;;;;;;;28.38;16.30;;;;;;;-2.16;57.72;93504.34;4991753;28;20554;-76
2022/12/13 07:52:21;;;;;;;23.85;15.95;;;;;;;-2.11;58.95;93512.22;4992073;28;20036;-75
2022/12/13 07:54:46;;;;;;;26.83;15.73;;;;;;;-1.87;57.26;93500.53;4990108;28;20030;-76
2022/12/13 07:57:12;;;;;;;22.98;14.50;;;;;;;-1.67;57.32;93507.78;4992402;28;20037;-76
2022/12/13 07:59:37;;;;;;;30.20;18.13;;;;;;;-1.78;57.02;93510.50;4992970;28;20021;-75
2022/12/13 08:02:04;;;;;;;28.20;17.35;;;;;;;-2.19;58.17;93502.22;4987986;28;20037;-76
2022/12/13 08:04:29;;;;;;;27.35;17.35;;;;;;;-2.68;59.66;93505.72;4987698;28;20042;-75
2022/12/13 08:06:55;;;;;;;27.77;17.25;;;;;;;-2.41;59.99;93511.81;4991622;28;20545;-75
2022/12/13 08:09:20;;;;;;;30.15;18.45;;;;;;;-2.23;60.32;93532.38;4991578;28;20569;-75
2022/12/13 08:11:46;;;;;;;34.95;21.17;;;;;;;-2.14;58.27;93512.69;4991793;28;20125;-76
2022/12/13 08:14:11;;;;;;;58.97;27.98;;;;;;;-2.01;57.50;93520.16;4987023;28;20058;-75
2022/12/13 08:16:36;;;;;;;115.40;48.53;;;;;;;-1.74;56.86;93529.84;4994225;28;20180;-75
2022/12/13 08:19:02;;;;;;;62.85;29.30;;;;;;;-1.75;55.83;93538.72;4974335;28;20080;-75
2022/12/13 08:21:28;;;;;;;35.60;19.38;;;;;;;-2.05;58.04;93513.09;4964004;28;20801;-75
2022/12/13 08:23:53;;;;;;;26.95;15.68;;;;;;;-1.77;56.20;93523.31;4959801;28;20072;-76
2022/12/13 08:26:19;;;;;;;26.20;16.67;;;;;;;-1.58;55.86;93536.81;4961734;28;20026;-75
2022/12/13 08:28:44;;;;;;;24.25;14.75;;;;;;;-1.51;56.43;93550.47;4983575;28;20378;-75
2022/12/13 08:31:11;;;;;;;43.92;22.10;;;;;;;-1.87;57.14;93555.25;4981950;28;20539;-76
2022/12/13 08:33:36;;;;;;;27.92;15.88;;;;;;;-1.71;56.64;93522.34;4978776;28;20038;-75
2022/12/13 08:36:15;;;;;;;29.98;17.80;;;;;;;-1.42;55.80;93523.69;4981211;28;20045;-76
2022/12/13 08:38:41;;;;;;;26.60;16.13;;;;;;;-1.24;55.21;93530.38;4978175;28;20111;-76
2022/12/13 08:41:07;;;;;;;23.75;15.70;;;;;;;-0.96;54.97;93529.31;4981414;28;20023;-75
2022/12/13 08:43:33;;;;;;;22.38;14.73;;;;;;;-0.91;54.52;93520.75;4975706;28;20152;-76
2022/12/13 08:45:58;;;;;;;43.20;22.95;;;;;;;-0.90;55.39;93517.09;4979331;28;20595;-75
2022/12/13 08:48:23;;;;;;;23.45;15.50;;;;;;;-0.76;54.38;93520.88;4981026;28;20030;-76
2022/12/13 08:50:49;;;;;;;19.15;13.98;;;;;;;-0.59;52.52;93513.69;4978703;28;20077;-75
2022/12/13 08:53:14;;;;;;;21.70;14.80;;;;;;;-0.67;52.65;93498.47;4985474;28;20410;-75
2022/12/13 08:55:40;;;;;;;22.33;15.45;;;;;;;-0.45;52.88;93508.81;4977972;28;20121;-75
2022/12/13 08:58:07;;;;;;;22.15;14.98;;;;;;;-0.57;53.31;93509.00;4976927;28;20042;-77
2022/12/13 09:00:34;;;;;;;24.70;16.52;;;;;;;-0.46;53.89;93509.84;4985085;28;20049;-76
2022/12/13 09:03:00;;;;;;;31.05;20.10;;;;;;;-0.60;54.85;93470.31;4984436;28;20041;-76
2022/12/13 09:05:26;;;;;;;25.58;17.15;;;;;;;-0.58;53.47;93481.31;4983498;28;20026;-76
2022/12/13 09:07:55;;;;;;;22.73;14.85;;;;;;;-0.64;53.73;93487.53;4980654;28;20573;-76
2022/12/13 09:10:20;;;;;;;22.08;12.90;;;;;;;-0.48;53.24;93476.13;4980842;28;20293;-76
2022/12/13 09:12:46;;;;;;;24.83;15.95;;;;;;;-0.42;53.64;93475.13;4986999;28;20042;-76
2022/12/13 09:15:12;;;;;;;26.30;16.80;;;;;;;-0.30;53.01;93486.19;4987046;28;20079;-76
2022/12/13 09:17:37;;;;;;;26.58;16.58;;;;;;;-0.45;53.62;93473.03;4982876;28;20030;-76
2022/12/13 09:20:06;;;;;;;25.80;16.48;;;;;;;-0.27;53.83;93479.66;4984836;28;20025;-76
2022/12/13 09:22:31;;;;;;;26.60;16.25;;;;;;;-0.26;53.32;93458.50;4988448;28;20046;-76
2022/12/13 09:24:56;;;;;;;25.85;17.33;;;;;;;-0.17;53.95;93482.31;4986317;28;20481;-76
2022/12/13 09:27:23;;;;;;;24.13;16.75;;;;;;;-0.34;54.24;93477.28;4987367;28;20100;-76
2022/12/13 09:29:49;;;;;;;24.27;15.73;;;;;;;-0.76;53.96;93453.78;4982708;28;20046;-76
2022/12/13 09:32:14;;;;;;;22.45;15.15;;;;;;;-0.59;53.13;93443.19;4990146;28;20527;-76
2022/12/13 09:34:40;;;;;;;22.58;15.95;;;;;;;-0.48;52.51;93438.81;4986844;28;20053;-75
2022/12/13 09:37:05;;;;;;;22.35;15.77;;;;;;;0.06;51.59;93453.13;4985412;28;20038;-76
2022/12/13 09:39:31;;;;;;;24.98;14.68;;;;;;;-0.20;53.22;93465.34;4990265;28;20052;-76
2022/12/13 09:41:57;;;;;;;21.27;13.68;;;;;;;0.03;51.36;93458.09;4986287;28;20073;-76
2022/12/13 09:44:29;;;;;;;25.30;16.38;;;;;;;-0.03;52.52;93457.28;4979662;28;21632;-76
2022/12/13 09:46:58;;;;;;;21.95;15.27;;;;;;;0.10;52.58;93448.19;4986546;28;20048;-76
2022/12/13 09:49:43;;;;;;;24.42;14.48;;;;;;;-0.36;52.41;93457.66;4990403;28;20041;-76
2022/12/13 09:52:14;;;;;;;23.67;15.05;;;;;;;-0.34;52.15;93455.59;4987094;28;20346;-76
2022/12/13 09:54:40;;;;;;;21.73;13.82;;;;;;;-0.70;52.86;93463.22;4989088;28;20485;-76
2022/12/13 09:57:19;;;;;;;31.58;18.08;;;;;;;-0.75;51.93;93455.34;4986354;28;20566;-76
2022/12/13 09:59:46;;;;;;;189.55;85.78;;;;;;;-0.22;49.48;93456.94;5005689;28;20571;-74
2022/12/13 10:02:20;;;;;;;104.07;52.63;;;;;;;0.09;50.28;93459.69;4989325;28;20830;-75
2022/12/13 10:04:46;;;;;;;15.75;10.05;;;;;;;0.12;47.61;93422.56;4987646;28;20034;-75
2022/12/13 10:07:23;;;;;;;13.77;9.68;;;;;;;-0.03;49.66;93446.03;4985397;28;20049;-76
2022/12/13 10:10:00;;;;;;;14.02;10.93;;;;;;;-0.58;50.71;93442.13;4988575;28;20042;-77
2022/12/13 10:12:27;;;;;;;18.48;11.60;;;;;;;-0.31;51.49;93455.88;4982378;28;20038;-77
2022/12/13 10:15:01;;;;;;;20.85;12.85;;;;;;;-0.00;51.83;93445.53;4987691;28;20079;-76
2022/12/13 10:17:33;;;;;;;22.27;15.55;;;;;;;0.23;51.90;93445.09;4980536;28;20054;-77
2022/12/13 10:19:59;;;;;;;30.30;17.88;;;;;;;-0.48;51.36;93426.50;4987104;28;20369;-76
2022/12/13 10:22:25;;;;;;;16.48;10.60;;;;;;;-0.51;50.86;93437.47;4986396;28;20049;-76
2022/12/13 10:25:04;;;;;;;12.68;8.88;;;;;;;-0.23;50.61;93444.91;4990665;28;20209;-76
2022/12/13 10:27:37;;;;;;;16.83;10.70;;;;;;;0.42;49.57;93438.31;4986638;28;20532;-77
2022/12/13 10:30:11;;;;;;;16.15;10.77;;;;;;;0.47;48.78;93427.09;4984430;28;20037;-77
2022/12/13 10:32:55;;;;;;;13.02;9.30;;;;;;;0.80;47.19;93414.28;4981643;28;20057;-75
2022/12/13 10:35:22;;;;;;;12.20;8.15;;;;;;;0.92;46.52;93410.63;4979897;28;20032;-76
2022/12/13 10:37:48;;;;;;;12.38;8.80;;;;;;;0.91;46.75;93403.81;4982497;28;20602;-77
2022/12/13 10:40:31;;;;;;;15.00;9.02;;;;;;;0.82;47.76;93395.72;4979946;28;20038;-76
2022/12/13 10:43:06;;;;;;;12.10;8.77;;;;;;;1.02;47.59;93394.91;4982142;28;20038;-76
2022/12/13 10:45:32;;;;;;;18.38;10.77;;;;;;;0.39;48.95;93383.13;4978392;28;20654;-76
2022/12/13 10:47:57;;;;;;;22.58;14.43;;;;;;;0.49;48.59;93404.84;4985254;28;20046;-76
2022/12/13 10:50:28;;;;;;;16.52;12.70;;;;;;;0.64;49.82;93396.25;4985320;28;20031;-77
2022/12/13 10:52:56;;;;;;;14.75;9.63;;;;;;;0.69;48.38;93386.53;4979423;28;20057;-76
2022/12/13 10:55:29;;;;;;;13.80;9.32;;;;;;;0.77;49.46;93387.84;4980854;28;20093;-76
2022/12/13 10:57:58;;;;;;;13.27;9.70;;;;;;;0.83;48.65;93371.09;4985684;28;20033;-76
2022/12/13 11:00:40;;;;;;;15.85;10.52;;;;;;;1.06;47.84;93386.25;4987184;28;20038;-76
2022/12/13 11:03:07;;;;;;;15.95;11.43;;;;;;;0.76;47.89;93381.84;4983479;28;20041;-76
2022/12/13 11:05:35;;;;;;;14.25;9.13;;;;;;;1.14;46.11;93382.31;4988969;28;20029;-76
2022/12/13 11:08:25;;;;;;;13.95;8.40;;;;;;;1.12;47.26;93374.72;4986781;28;20557;-76
2022/12/13 11:11:01;;;;;;;15.77;10.27;;;;;;;1.19;48.00;93384.91;4991630;28;20042;-76
2022/12/13 11:13:42;;;;;;;16.50;9.90;;;;;;;1.20;46.91;93376.81;4988362;28;20033;-76
2022/12/13 11:16:38;;;;;;;17.75;11.88;;;;;;;1.05;49.03;93370.81;4989027;28;20046;-75
2022/12/13 11:19:15;;;;;;;;;;;;;;;1.19;48.72;93363.97;4989242;28;20050;-76
2022/12/13 11:21:47;;;;;;;16.38;9.13;;;;;;;1.18;48.09;93363.19;4991784;28;19922;-76
2022/12/13 11:24:21;;;;;;;18.23;11.07;;;;;;;1.23;47.72;93365.00;4993145;28;20556;-76
2022/12/13 11:26:56;;;;;;;11.90;9.07;;;;;;;0.76;49.87;93355.66;4990136;28;20304;-76
2022/12/13 11:29:42;;;;;;;14.82;9.38;;;;;;;-0.12;49.40;93360.28;4993612;28;20029;-76
2022/12/13 11:32:14;;;;;;;;;;;;;;;0.52;49.46;93372.16;4991817;28;20461;-76
2022/12/13 11:35:11;;;;;;;16.08;11.02;;;;;;;0.78;49.15;93373.72;4990502;28;20177;-76
2022/12/13 11:38:14;;;;;;;11.50;8.82;;;;;;;1.07;48.49;93381.81;5003220;28;20415;-76
2022/12/13 11:40:57;;;;;;;12.07;8.38;;;;;;;0.99;48.20;93384.94;4989286;28;20038;-77